Azalea, OR

9:51 AM PST on March 03, 2015 (GMT -0800)
wolf creek | Change Station
CLOSE
Current Station
Personal Weather Station
Location: Wolf Creek, OR
Elevation: 1503 ft
Nearby Weather Stations

Elev 1503 ft 42.71 °N, 123.37 °W | Updated 12 seconds ago

Partly Cloudy
Partly Cloudy
44.8 °F
Feels Like 43 °F
N
4.0
Wind Variable Wind from NNW
Gusts 4.0 mph

Today
High -- | Low -- °F
--% Chance of Precip.
Yesterday
High -- | Low -- °F
Precip. -- in
6:45 AM 6:04 PM
Waxing Gibbous, 96% visible
Pressure 30.20 in
Visibility 5.0 miles
Clouds Overcast 200 ft
Windchill 43 °F
Dew Point 38 °F
Humidity 77%
Rainfall 0.00 in
Snow Depth Not available.
UV 1 out of 12
Pollen 5.30 out of 12
Air Quality Not available.
Flu Activity Not available.
SPECI KRBG 031718Z AUTO 00000KT 5SM BR OVC002 03/02 A3020 RMK AO2 T00280022

More Conditions Fewer Conditions

Pressure 30.20 in
Visibility 5.0 miles
Clouds Overcast 200 ft
Windchill 43 °F
Dew Point 38 °F
Humidity 77%
Rainfall 0.00 in
Snow Depth Not available.
UV 1 out of 12
Pollen 5.30 out of 12
Air Quality Not available.
Flu Activity Not available.
SPECI KRBG 031718Z AUTO 00000KT 5SM BR OVC002 03/02 A3020 RMK AO2 T00280022

More Conditions Fewer Conditions

10-Day Weather Forecast

Almanac

Astronomy

Mar. 03, 2015 Rise Set
Actual Time
Civil Twilight
Nautical Twilight
Astronomical Twilight
Moon
Length of Visible Light
Length of Day
Tomorrow will be .
, % of the Moon is Illuminated

Today's Extremes

State Highs State Lows

Community

WunderPhotos

Upload Photos

1,802,186 photos uploaded!

WunderBlogs® & News

Nearby

Air Quality

  Air Quality AQ Index Pollutant
Not available.

Snow Depth

Station Depth Elevation

Earthquake Activity

City Distance Mag. Time & Date
Minimum magnitude displayed is 2.5.

Coastal Water Temperatures

Place Temperature

Nearby Weather Stations